Time;durP1;ratioP1;P1;durP2;ratioP2;P2;SDS_P1;SDS_P2;PMS_P1;PMS_P2;Temp;Humidity;BMP_temperature;BMP_pressure;BME280_temperature;BME280_humidity;BME280_pressure;Samples;Min_cycle;Max_cycle;Signal;HPM_P1;HPM_P2
2022/07/03 00:02:22;;;;;;;1.10;0.70;;;;;;;;;;8325996;28;20124;-58
2022/07/03 00:06:22;;;;;;;2.67;0.70;;;;;;;;;;8327811;28;20017;-59
2022/07/03 00:10:22;;;;;;;1.35;0.80;;;;;;;;;;8326148;28;20026;-59
2022/07/03 00:14:24;;;;;;;1.60;0.70;;;;;;;;;;8326180;28;20036;-59
2022/07/03 00:18:24;;;;;;;0.88;0.88;;;;;;;;;;8325485;28;20120;-58
2022/07/03 00:22:25;;;;;;;1.57;0.60;;;;;;;;;;8328898;28;20037;-58
2022/07/03 00:26:26;;;;;;;0.95;0.95;;;;;;;;;;8326779;28;21401;-58
2022/07/03 00:30:27;;;;;;;1.73;0.82;;;;;;;;;;8327612;28;20032;-58
2022/07/03 00:34:28;;;;;;;1.40;1.20;;;;;;;;;;8324372;28;20094;-58
2022/07/03 00:38:28;;;;;;;1.95;1.17;;;;;;;;;;8325861;28;20829;-58
2022/07/03 00:42:30;;;;;;;2.00;1.80;;;;;;;;;;8325127;28;20806;-58
2022/07/03 00:46:30;;;;;;;1.27;1.17;;;;;;;;;;8325485;28;20064;-59
2022/07/03 00:50:34;;;;;;;1.00;1.00;;;;;;;;;;8326866;28;20584;-59
2022/07/03 00:54:35;;;;;;;6.90;4.22;;;;;;;;;;8326954;28;20430;-59
2022/07/03 00:58:35;;;;;;;7.72;4.82;;;;;;;;;;8326977;28;20090;-59
2022/07/03 01:02:44;;;;;;;3.08;2.50;;;;;;;;;;8323813;28;20544;-58
2022/07/03 01:06:50;;;;;;;4.47;2.25;;;;;;;;;;8328779;28;20024;-59
2022/07/03 01:11:09;;;;;;;4.70;3.38;;;;;;;;;;8325071;28;20665;-59
2022/07/03 01:15:15;;;;;;;6.82;4.50;;;;;;;;;;8324052;28;20024;-59
2022/07/03 01:19:34;;;;;;;3.90;2.10;;;;;;;;;;8328947;28;20027;-58
2022/07/03 01:23:52;;;;;;;1.77;1.50;;;;;;;;;;8325819;28;20159;-60
2022/07/03 01:27:58;;;;;;;1.10;1.00;;;;;;;;;;8325464;28;20071;-58
2022/07/03 01:31:59;;;;;;;0.93;0.90;;;;;;;;;;8323170;28;20047;-58
2022/07/03 01:36:04;;;;;;;0.80;0.80;;;;;;;;;;8321837;28;20785;-58
2022/07/03 01:40:06;;;;;;;0.80;0.70;;;;;;;;;;8324416;28;20801;-58
2022/07/03 01:44:06;;;;;;;1.08;0.95;;;;;;;;;;8325098;28;20997;-60
2022/07/03 01:48:07;;;;;;;1.00;0.90;;;;;;;;;;8325661;28;20040;-60
2022/07/03 01:52:10;;;;;;;1.42;0.80;;;;;;;;;;8325872;28;20321;-58
2022/07/03 01:56:11;;;;;;;2.40;0.90;;;;;;;;;;8333454;28;20045;-58
2022/07/03 02:00:12;;;;;;;0.80;0.80;;;;;;;;;;8330844;28;20406;-58
2022/07/03 02:04:31;;;;;;;0.77;0.77;;;;;;;;;;8332469;28;20048;-58
2022/07/03 02:08:49;;;;;;;0.70;0.70;;;;;;;;;;8333199;28;20496;-58
2022/07/03 02:12:52;;;;;;;0.80;0.80;;;;;;;;;;8334679;28;20105;-60
2022/07/03 02:17:11;;;;;;;0.80;0.80;;;;;;;;;;8332246;28;20430;-57
2022/07/03 02:21:15;;;;;;;0.70;0.70;;;;;;;;;;8329791;28;20031;-58
2022/07/03 02:25:18;;;;;;;0.80;0.80;;;;;;;;;;8333267;28;20033;-58
2022/07/03 02:29:20;;;;;;;0.70;0.70;;;;;;;;;;8335458;28;20029;-58
2022/07/03 02:33:28;;;;;;;0.85;0.85;;;;;;;;;;8328322;28;20032;-58
2022/07/03 02:37:34;;;;;;;0.85;0.70;;;;;;;;;;8331172;28;20031;-59
2022/07/03 02:41:45;;;;;;;0.80;0.80;;;;;;;;;;8330915;28;20017;-59
2022/07/03 02:45:55;;;;;;;0.63;0.63;;;;;;;;;;8329124;28;20413;-59
2022/07/03 02:49:55;;;;;;;0.80;0.80;;;;;;;;;;8330936;28;20791;-58
2022/07/03 02:54:09;;;;;;;0.80;0.80;;;;;;;;;;8329619;28;20021;-58
2022/07/03 02:58:27;;;;;;;1.15;0.90;;;;;;;;;;8333104;28;20033;-58
2022/07/03 03:02:30;;;;;;;1.50;0.63;;;;;;;;;;8329099;28;20135;-58
2022/07/03 03:06:30;;;;;;;2.47;0.80;;;;;;;;;;8327438;28;20474;-59
2022/07/03 03:10:34;;;;;;;2.83;0.70;;;;;;;;;;8329278;28;20394;-58
2022/07/03 03:14:41;;;;;;;0.70;0.70;;;;;;;;;;8330783;28;20029;-58
2022/07/03 03:18:41;;;;;;;1.65;0.73;;;;;;;;;;8326642;28;20042;-58
2022/07/03 03:22:42;;;;;;;0.97;0.87;;;;;;;;;;8328694;28;20578;-58
2022/07/03 03:26:42;;;;;;;0.80;0.80;;;;;;;;;;8327377;28;20290;-58
2022/07/03 03:30:42;;;;;;;1.27;1.00;;;;;;;;;;8327299;28;20116;-59
2022/07/03 03:34:45;;;;;;;4.95;0.80;;;;;;;;;;8328848;28;21314;-59
2022/07/03 03:38:46;;;;;;;0.95;0.80;;;;;;;;;;8329695;28;20115;-58
2022/07/03 03:42:46;;;;;;;2.00;0.90;;;;;;;;;;8327982;28;20103;-58
2022/07/03 03:46:46;;;;;;;2.03;0.93;;;;;;;;;;8327132;28;20041;-59
2022/07/03 03:50:49;;;;;;;0.80;0.80;;;;;;;;;;8329144;28;20006;-58
2022/07/03 03:54:50;;;;;;;0.83;0.80;;;;;;;;;;8327564;28;20029;-58
2022/07/03 03:58:50;;;;;;;2.60;1.00;;;;;;;;;;8329404;28;20048;-58
2022/07/03 04:02:50;;;;;;;1.07;0.80;;;;;;;;;;8328662;28;20300;-57
2022/07/03 04:06:50;;;;;;;0.77;0.70;;;;;;;;;;8330489;28;20024;-58
2022/07/03 04:10:51;;;;;;;3.13;0.80;;;;;;;;;;8326413;28;20024;-59
2022/07/03 04:14:51;;;;;;;0.70;0.70;;;;;;;;;;8328737;28;20024;-58
2022/07/03 04:18:51;;;;;;;2.38;0.88;;;;;;;;;;8328198;28;20041;-58
2022/07/03 04:22:51;;;;;;;1.63;0.73;;;;;;;;;;8322854;28;20131;-59
2022/07/03 04:26:52;;;;;;;2.17;0.90;;;;;;;;;;8330775;28;20602;-57
2022/07/03 04:30:52;;;;;;;1.77;0.90;;;;;;;;;;8324012;28;20033;-58
2022/07/03 04:34:52;;;;;;;8.15;1.48;;;;;;;;;;8325544;28;20044;-57
2022/07/03 04:38:52;;;;;;;0.80;0.80;;;;;;;;;;8326544;28;20032;-58
2022/07/03 04:42:53;;;;;;;1.20;0.80;;;;;;;;;;8328202;28;20035;-57
2022/07/03 04:46:53;;;;;;;1.30;0.90;;;;;;;;;;8327260;28;20041;-58
2022/07/03 04:50:53;;;;;;;2.00;0.90;;;;;;;;;;8325182;28;20025;-59
2022/07/03 04:54:53;;;;;;;2.97;0.90;;;;;;;;;;8325805;28;20033;-58
2022/07/03 04:58:53;;;;;;;2.90;0.90;;;;;;;;;;8328680;28;20063;-58
2022/07/03 05:02:54;;;;;;;0.80;0.80;;;;;;;;;;8324371;28;20036;-58
2022/07/03 05:06:54;;;;;;;0.85;0.70;;;;;;;;;;8324799;28;20287;-58
2022/07/03 05:10:54;;;;;;;0.80;0.80;;;;;;;;;;8325247;28;20383;-58
2022/07/03 05:14:55;;;;;;;1.00;0.90;;;;;;;;;;8327697;28;20251;-58
2022/07/03 05:18:55;;;;;;;3.80;0.80;;;;;;;;;;8326298;28;20033;-58
2022/07/03 05:22:56;;;;;;;0.60;0.60;;;;;;;;;;8324670;28;20035;-59
2022/07/03 05:26:56;;;;;;;0.80;0.80;;;;;;;;;;8326420;28;20037;-58
2022/07/03 05:30:57;;;;;;;2.55;0.90;;;;;;;;;;8325692;28;20045;-59
2022/07/03 05:34:57;;;;;;;1.25;0.90;;;;;;;;;;8327027;28;20021;-58
2022/07/03 05:43:16;;;;;;;0.68;0.68;;;;;;;;;;8327061;28;20044;-58
2022/07/03 05:47:16;;;;;;;1.55;0.90;;;;;;;;;;8322354;28;20029;-59
2022/07/03 05:51:17;;;;;;;1.08;0.80;;;;;;;;;;8324129;28;20720;-58
2022/07/03 05:55:17;;;;;;;1.00;0.82;;;;;;;;;;8325801;28;20021;-59
2022/07/03 05:59:17;;;;;;;4.30;0.77;;;;;;;;;;8325720;28;20043;-57
2022/07/03 06:03:17;;;;;;;2.05;1.10;;;;;;;;;;8322580;28;20029;-58
2022/07/03 06:07:17;;;;;;;4.23;0.80;;;;;;;;;;8326669;28;20013;-59
2022/07/03 06:11:18;;;;;;;1.30;1.02;;;;;;;;;;8326143;28;20074;-58
2022/07/03 06:15:18;;;;;;;2.27;0.80;;;;;;;;;;8325742;28;20039;-59
2022/07/03 06:19:18;;;;;;;1.38;0.77;;;;;;;;;;8323545;28;20107;-59
2022/07/03 06:23:18;;;;;;;1.90;0.80;;;;;;;;;;8326195;28;20028;-59
2022/07/03 06:27:19;;;;;;;2.20;0.80;;;;;;;;;;8324249;28;20020;-57
2022/07/03 06:31:19;;;;;;;0.95;0.82;;;;;;;;;;8323829;28;20844;-58
2022/07/03 06:35:19;;;;;;;0.80;0.80;;;;;;;;;;8324285;28;20152;-58
2022/07/03 06:39:19;;;;;;;0.75;0.75;;;;;;;;;;8325031;28;20021;-57
2022/07/03 06:43:19;;;;;;;1.17;0.83;;;;;;;;;;8327968;28;20064;-56
2022/07/03 06:47:20;;;;;;;1.10;0.90;;;;;;;;;;8329112;28;20486;-58
2022/07/03 06:51:20;;;;;;;3.00;0.80;;;;;;;;;;8332124;28;20015;-57
2022/07/03 06:55:20;;;;;;;1.38;0.75;;;;;;;;;;8328198;28;20023;-57
2022/07/03 06:59:20;;;;;;;2.03;0.90;;;;;;;;;;8330087;28;20021;-59
2022/07/03 07:03:21;;;;;;;0.95;0.70;;;;;;;;;;8327158;28;20033;-58
2022/07/03 07:07:21;;;;;;;2.10;0.73;;;;;;;;;;8335883;28;20025;-58
2022/07/03 07:11:21;;;;;;;2.43;0.80;;;;;;;;;;8331164;28;20031;-59
2022/07/03 07:15:21;;;;;;;0.70;0.70;;;;;;;;;;8326114;28;20057;-59
2022/07/03 07:19:22;;;;;;;0.60;0.60;;;;;;;;;;8329018;28;20904;-59
2022/07/03 07:23:22;;;;;;;2.05;1.10;;;;;;;;;;8330580;28;20025;-59
2022/07/03 07:27:22;;;;;;;0.70;0.70;;;;;;;;;;8329642;28;20042;-58
2022/07/03 07:31:22;;;;;;;4.13;0.80;;;;;;;;;;8321962;28;20036;-59
2022/07/03 07:35:23;;;;;;;2.20;0.75;;;;;;;;;;8320889;28;20747;-59
2022/07/03 07:39:23;;;;;;;0.85;0.85;;;;;;;;;;8316305;28;20085;-59
2022/07/03 07:43:23;;;;;;;1.73;0.80;;;;;;;;;;8319499;28;20017;-59
2022/07/03 07:47:23;;;;;;;0.83;0.63;;;;;;;;;;8321362;28;20484;-58
2022/07/03 07:51:23;;;;;;;4.90;0.90;;;;;;;;;;8318850;28;20520;-58
2022/07/03 07:55:25;;;;;;;3.00;0.80;;;;;;;;;;8318328;28;20028;-58
2022/07/03 07:59:25;;;;;;;1.85;0.80;;;;;;;;;;8321746;28;20098;-59
2022/07/03 08:07:44;;;;;;;1.90;0.70;;;;;;;;;;8318525;28;20451;-58
2022/07/03 08:11:44;;;;;;;3.60;0.70;;;;;;;;;;8318354;28;20385;-59
2022/07/03 08:15:46;;;;;;;1.60;0.70;;;;;;;;;;8316136;28;20096;-59
2022/07/03 08:19:47;;;;;;;0.82;0.80;;;;;;;;;;8320772;28;20085;-58
2022/07/03 08:23:47;;;;;;;1.90;0.80;;;;;;;;;;8318567;28;20147;-59
2022/07/03 08:27:47;;;;;;;1.05;0.70;;;;;;;;;;8315925;28;20519;-58
2022/07/03 08:31:47;;;;;;;3.67;0.83;;;;;;;;;;8318089;28;20629;-59
2022/07/03 08:35:48;;;;;;;1.92;0.70;;;;;;;;;;8318813;28;20021;-59
2022/07/03 08:39:48;;;;;;;0.77;0.68;;;;;;;;;;8318825;28;20028;-59
2022/07/03 08:43:50;;;;;;;1.08;0.73;;;;;;;;;;8320439;28;20028;-59
2022/07/03 08:47:52;;;;;;;1.35;0.73;;;;;;;;;;8317063;28;20419;-59
2022/07/03 08:51:53;;;;;;;1.23;0.70;;;;;;;;;;8317776;28;20058;-59
2022/07/03 08:55:53;;;;;;;2.90;0.90;;;;;;;;;;8317796;28;20608;-59
2022/07/03 08:59:54;;;;;;;0.68;0.68;;;;;;;;;;8319872;28;20025;-59
2022/07/03 09:03:55;;;;;;;1.08;0.70;;;;;;;;;;8315497;28;20152;-58
2022/07/03 09:07:56;;;;;;;0.85;0.77;;;;;;;;;;8318566;28;20034;-59
2022/07/03 09:11:58;;;;;;;1.77;0.73;;;;;;;;;;8315469;28;20055;-59
2022/07/03 09:15:58;;;;;;;;;;;;;;;;;;8318228;28;20037;-59
2022/07/03 09:19:59;;;;;;;2.50;0.70;;;;;;;;;;8317384;28;20381;-59
2022/07/03 09:24:03;;;;;;;1.27;0.77;;;;;;;;;;8317976;28;20567;-59
2022/07/03 09:28:03;;;;;;;0.82;0.63;;;;;;;;;;8315658;28;20299;-59
2022/07/03 09:32:03;;;;;;;2.17;0.90;;;;;;;;;;8317499;28;20155;-59
2022/07/03 09:36:03;;;;;;;3.00;0.80;;;;;;;;;;8319170;28;20478;-59
2022/07/03 09:40:05;;;;;;;1.83;0.70;;;;;;;;;;8316653;28;20028;-59
2022/07/03 09:44:05;;;;;;;0.85;0.68;;;;;;;;;;8318052;28;20017;-59
2022/07/03 09:48:19;;;;;;;1.48;0.77;;;;;;;;;;8317684;28;20029;-59
2022/07/03 09:52:29;;;;;;;1.10;0.80;;;;;;;;;;8317157;28;20448;-59
2022/07/03 09:56:36;;;;;;;1.48;0.70;;;;;;;;;;8316618;28;20030;-59
2022/07/03 10:00:36;;;;;;;1.75;0.70;;;;;;;;;;8316870;28;20836;-59
2022/07/03 10:04:37;;;;;;;1.70;0.87;;;;;;;;;;8314891;28;20346;-59
2022/07/03 10:08:37;;;;;;;1.33;0.80;;;;;;;;;;8314689;28;20031;-59
2022/07/03 10:12:37;;;;;;;2.08;0.80;;;;;;;;;;8314074;28;20016;-59
2022/07/03 10:16:38;;;;;;;2.30;0.80;;;;;;;;;;8317292;28;20041;-59
2022/07/03 10:20:48;;;;;;;1.23;0.80;;;;;;;;;;8321165;28;20020;-59
2022/07/03 10:24:49;;;;;;;1.55;0.90;;;;;;;;;;8320373;28;20550;-59
2022/07/03 10:28:50;;;;;;;1.43;0.90;;;;;;;;;;8323814;28;20388;-60
2022/07/03 10:32:51;;;;;;;1.33;0.85;;;;;;;;;;8319161;28;20280;-59
2022/07/03 10:36:59;;;;;;;1.60;0.90;;;;;;;;;;8320516;28;20037;-59
2022/07/03 10:45:21;;;;;;;1.10;1.00;;;;;;;;;;8317685;28;20032;-59
2022/07/03 10:49:22;;;;;;;2.60;0.80;;;;;;;;;;8318974;28;20029;-59
2022/07/03 10:53:22;;;;;;;2.20;0.80;;;;;;;;;;8318467;28;20054;-59
2022/07/03 10:57:23;;;;;;;3.33;0.90;;;;;;;;;;8321998;28;20033;-59
2022/07/03 11:01:30;;;;;;;1.27;0.90;;;;;;;;;;8316270;28;20065;-59
2022/07/03 11:05:37;;;;;;;2.00;0.70;;;;;;;;;;8319352;28;20063;-60
2022/07/03 11:09:37;;;;;;;1.15;0.73;;;;;;;;;;8320471;28;20094;-59
2022/07/03 11:13:57;;;;;;;1.67;0.90;;;;;;;;;;8320010;28;20178;-59
2022/07/03 11:18:07;;;;;;;1.55;0.75;;;;;;;;;;8319099;28;20160;-59
2022/07/03 11:22:13;;;;;;;3.67;1.08;;;;;;;;;;8318706;28;20096;-59
2022/07/03 11:26:14;;;;;;;2.20;0.90;;;;;;;;;;8320310;28;20044;-59
2022/07/03 11:30:14;;;;;;;2.38;0.85;;;;;;;;;;8321524;28;20169;-60
2022/07/03 11:34:19;;;;;;;2.45;0.70;;;;;;;;;;8321946;28;20538;-59
2022/07/03 11:38:21;;;;;;;0.60;0.60;;;;;;;;;;8321356;28;20025;-60
2022/07/03 11:42:21;;;;;;;1.63;0.68;;;;;;;;;;8317743;28;20025;-59
2022/07/03 11:46:22;;;;;;;1.00;0.70;;;;;;;;;;8318241;28;20475;-59
2022/07/03 11:50:39;;;;;;;1.90;0.73;;;;;;;;;;8322056;28;20051;-59
2022/07/03 11:54:49;;;;;;;1.55;0.98;;;;;;;;;;8321982;28;20017;-59
2022/07/03 11:58:50;;;;;;;1.77;0.80;;;;;;;;;;8321786;28;20383;-59
2022/07/03 12:02:51;;;;;;;2.17;0.82;;;;;;;;;;8317235;28;20107;-59
2022/07/03 12:06:52;;;;;;;1.75;0.80;;;;;;;;;;8319852;28;20029;-60
2022/07/03 12:11:07;;;;;;;1.30;0.90;;;;;;;;;;8318524;28;20091;-59
2022/07/03 12:15:07;;;;;;;2.40;0.80;;;;;;;;;;8320147;28;20124;-59
2022/07/03 12:19:08;;;;;;;3.10;0.70;;;;;;;;;;8321005;28;20063;-59
2022/07/03 12:23:08;;;;;;;0.83;0.60;;;;;;;;;;8319642;28;20046;-59
2022/07/03 12:27:08;;;;;;;2.70;0.87;;;;;;;;;;8319418;28;20501;-59
2022/07/03 12:31:09;;;;;;;2.60;0.80;;;;;;;;;;8319082;28;20955;-59
2022/07/03 12:35:09;;;;;;;1.20;0.70;;;;;;;;;;8320350;28;20094;-59
2022/07/03 12:39:09;;;;;;;0.93;0.70;;;;;;;;;;8319052;28;20028;-59
2022/07/03 12:43:09;;;;;;;3.50;0.70;;;;;;;;;;8322749;28;20107;-59
2022/07/03 12:47:09;;;;;;;0.70;0.70;;;;;;;;;;8318876;28;20041;-59
2022/07/03 12:51:10;;;;;;;0.80;0.60;;;;;;;;;;8320667;28;20029;-59
2022/07/03 12:55:21;;;;;;;1.40;0.67;;;;;;;;;;8317106;28;20025;-60
2022/07/03 12:59:21;;;;;;;;;;;;;;;;;;8319790;28;20035;-59
2022/07/03 13:03:33;;;;;;;2.53;0.80;;;;;;;;;;8317662;28;19956;-59
2022/07/03 13:07:39;;;;;;;1.15;0.70;;;;;;;;;;8315742;28;20036;-59
2022/07/03 13:11:42;;;;;;;1.08;0.70;;;;;;;;;;8316249;28;20595;-59
2022/07/03 13:15:42;;;;;;;2.35;0.90;;;;;;;;;;8316983;28;20028;-59
2022/07/03 13:19:42;;;;;;;0.98;0.77;;;;;;;;;;8321389;28;20050;-60
2022/07/03 13:23:42;;;;;;;1.30;0.80;;;;;;;;;;8317663;28;20514;-59
2022/07/03 13:27:45;;;;;;;1.88;0.70;;;;;;;;;;8318065;28;20033;-59
2022/07/03 13:31:46;;;;;;;1.70;0.82;;;;;;;;;;8315761;28;20410;-59
2022/07/03 13:35:46;;;;;;;0.75;0.70;;;;;;;;;;8317140;28;20025;-59
2022/07/03 13:39:46;;;;;;;1.20;0.70;;;;;;;;;;8314105;28;20028;-59
2022/07/03 13:43:47;;;;;;;1.15;0.93;;;;;;;;;;8315525;28;20033;-60
2022/07/03 13:47:47;;;;;;;3.10;0.70;;;;;;;;;;8317369;28;20167;-59
2022/07/03 13:51:48;;;;;;;2.70;0.70;;;;;;;;;;8316842;28;20525;-59
2022/07/03 13:55:48;;;;;;;5.35;0.90;;;;;;;;;;8316511;28;20575;-59
2022/07/03 13:59:48;;;;;;;3.85;0.80;;;;;;;;;;8317028;28;20021;-59
2022/07/03 14:03:48;;;;;;;3.90;0.75;;;;;;;;;;8314422;28;20029;-59
2022/07/03 14:07:49;;;;;;;3.30;0.80;;;;;;;;;;8319271;28;20317;-59
2022/07/03 14:11:49;;;;;;;2.58;0.70;;;;;;;;;;8316567;28;20031;-59
2022/07/03 14:15:50;;;;;;;0.80;0.80;;;;;;;;;;8316431;28;20028;-59
2022/07/03 14:19:50;;;;;;;1.05;0.80;;;;;;;;;;8319030;28;20018;-60
2022/07/03 14:23:50;;;;;;;1.75;0.70;;;;;;;;;;8316991;28;20039;-60
2022/07/03 14:36:28;;;;;;;0.70;0.70;;;;;;;;;;8318891;28;20062;-59
2022/07/03 14:40:28;;;;;;;2.37;0.80;;;;;;;;;;8313285;28;20057;-59
2022/07/03 14:44:29;;;;;;;0.93;0.65;;;;;;;;;;8316915;28;20039;-59
2022/07/03 14:48:29;;;;;;;1.35;0.70;;;;;;;;;;8316820;28;20464;-59
2022/07/03 14:52:30;;;;;;;0.60;0.60;;;;;;;;;;8318790;28;20571;-59
2022/07/03 14:56:30;;;;;;;2.45;0.88;;;;;;;;;;8316312;28;20028;-60
2022/07/03 15:00:32;;;;;;;0.80;0.63;;;;;;;;;;8314393;28;20080;-59
2022/07/03 15:04:33;;;;;;;0.98;0.60;;;;;;;;;;8319452;28;20040;-59
2022/07/03 15:08:33;;;;;;;0.75;0.57;;;;;;;;;;8322652;28;20611;-59
2022/07/03 15:12:36;;;;;;;1.38;0.80;;;;;;;;;;8321641;28;20114;-59
2022/07/03 15:16:37;;;;;;;0.73;0.70;;;;;;;;;;8318793;28;20430;-59
2022/07/03 15:20:37;;;;;;;2.28;0.70;;;;;;;;;;8321504;28;20059;-59
2022/07/03 15:24:37;;;;;;;1.80;0.60;;;;;;;;;;8320724;28;20363;-60
2022/07/03 15:28:38;;;;;;;1.90;0.90;;;;;;;;;;8321852;28;20569;-59
2022/07/03 15:32:39;;;;;;;2.22;0.73;;;;;;;;;;8325294;28;20045;-59
2022/07/03 15:36:44;;;;;;;1.05;0.75;;;;;;;;;;8324951;28;20025;-59
2022/07/03 15:40:44;;;;;;;1.27;0.68;;;;;;;;;;8327007;28;20045;-60
2022/07/03 15:44:57;;;;;;;0.80;0.80;;;;;;;;;;8323988;28;20067;-60
2022/07/03 15:48:57;;;;;;;3.90;0.80;;;;;;;;;;8330161;28;20600;-59
2022/07/03 15:53:00;;;;;;;2.38;0.60;;;;;;;;;;8324814;28;20036;-59
2022/07/03 15:57:01;;;;;;;4.20;0.80;;;;;;;;;;8324780;28;20857;-60
2022/07/03 16:05:29;;;;;;;4.35;0.95;;;;;;;;;;8324046;28;20048;-59
2022/07/03 16:09:29;;;;;;;1.23;0.70;;;;;;;;;;8329220;28;20033;-59
2022/07/03 16:13:31;;;;;;;1.15;0.70;;;;;;;;;;8326518;28;20474;-59
2022/07/03 16:17:32;;;;;;;1.48;0.77;;;;;;;;;;8326263;28;20043;-59
2022/07/03 16:21:35;;;;;;;0.65;0.60;;;;;;;;;;8324748;28;20132;-59
2022/07/03 16:25:36;;;;;;;1.23;0.60;;;;;;;;;;8326781;28;20040;-59
2022/07/03 16:29:37;;;;;;;0.60;0.60;;;;;;;;;;8327435;28;20031;-59
2022/07/03 16:33:41;;;;;;;1.20;0.80;;;;;;;;;;8323604;28;20060;-60
2022/07/03 16:37:50;;;;;;;1.08;0.77;;;;;;;;;;8327364;28;20271;-59
2022/07/03 16:41:54;;;;;;;0.80;0.80;;;;;;;;;;8324877;28;20444;-59
2022/07/03 16:45:54;;;;;;;2.53;0.70;;;;;;;;;;8324106;28;20136;-59
2022/07/03 16:49:55;;;;;;;1.80;0.70;;;;;;;;;;8324324;28;20378;-59
2022/07/03 16:53:56;;;;;;;4.53;0.80;;;;;;;;;;8324843;28;20032;-59
2022/07/03 16:57:57;;;;;;;0.50;0.50;;;;;;;;;;8324897;28;20021;-59
2022/07/03 17:01:57;;;;;;;2.55;0.70;;;;;;;;;;8319551;28;20126;-60
2022/07/03 17:05:58;;;;;;;0.77;0.70;;;;;;;;;;8324255;28;20033;-59
2022/07/03 17:09:58;;;;;;;3.25;0.90;;;;;;;;;;8325960;28;20017;-59
2022/07/03 17:14:00;;;;;;;2.17;0.70;;;;;;;;;;8326067;28;20025;-59
2022/07/03 17:18:03;;;;;;;1.65;0.80;;;;;;;;;;8323277;28;20037;-58
2022/07/03 17:22:05;;;;;;;2.60;0.80;;;;;;;;;;8324792;28;20036;-59
2022/07/03 17:26:06;;;;;;;2.47;0.80;;;;;;;;;;8319146;28;20041;-58
2022/07/03 17:30:08;;;;;;;2.53;0.80;;;;;;;;;;8322842;28;20101;-58
2022/07/03 17:34:09;;;;;;;5.25;0.70;;;;;;;;;;8316894;28;20073;-60
2022/07/03 17:38:13;;;;;;;1.88;0.73;;;;;;;;;;8320497;28;20032;-59
2022/07/03 17:42:14;;;;;;;1.77;0.80;;;;;;;;;;8321374;28;20423;-58
2022/07/03 17:46:15;;;;;;;0.90;0.80;;;;;;;;;;8320697;28;20048;-58
2022/07/03 17:50:17;;;;;;;1.90;0.85;;;;;;;;;;8320363;28;20029;-59
2022/07/03 17:54:17;;;;;;;1.35;0.80;;;;;;;;;;8316880;28;20103;-59
2022/07/03 17:58:18;;;;;;;1.52;0.82;;;;;;;;;;8323709;28;20074;-60
2022/07/03 18:02:18;;;;;;;1.05;0.90;;;;;;;;;;8322511;28;20088;-58
2022/07/03 18:06:22;;;;;;;1.05;0.70;;;;;;;;;;8320260;28;20037;-58
2022/07/03 18:10:23;;;;;;;2.28;0.70;;;;;;;;;;8320522;28;20588;-58
2022/07/03 18:14:29;;;;;;;1.75;0.70;;;;;;;;;;8325735;28;20017;-58
2022/07/03 18:18:32;;;;;;;1.23;0.73;;;;;;;;;;8322505;28;20161;-59
2022/07/03 18:22:33;;;;;;;1.70;0.80;;;;;;;;;;8321393;28;20043;-59
2022/07/03 18:26:46;;;;;;;0.85;0.70;;;;;;;;;;8322779;28;20497;-59
2022/07/03 18:30:47;;;;;;;0.60;0.60;;;;;;;;;;8317409;28;20316;-59
2022/07/03 18:34:48;;;;;;;2.40;0.75;;;;;;;;;;8320143;28;20057;-58
2022/07/03 18:38:49;;;;;;;0.55;0.55;;;;;;;;;;8322559;28;20024;-59
2022/07/03 18:42:49;;;;;;;0.73;0.60;;;;;;;;;;8323009;28;20028;-59
2022/07/03 18:46:53;;;;;;;0.68;0.68;;;;;;;;;;8323802;28;20520;-59
2022/07/03 18:51:00;;;;;;;0.88;0.70;;;;;;;;;;8322993;28;20048;-59
2022/07/03 18:55:03;;;;;;;1.75;0.80;;;;;;;;;;8324198;28;20020;-58
2022/07/03 18:59:09;;;;;;;0.73;0.70;;;;;;;;;;8324670;28;20083;-59
2022/07/03 19:03:12;;;;;;;1.25;0.68;;;;;;;;;;8321031;28;20073;-59
2022/07/03 19:07:13;;;;;;;2.60;0.80;;;;;;;;;;8324046;28;20053;-59
2022/07/03 19:11:17;;;;;;;1.30;0.80;;;;;;;;;;8323766;28;20757;-59
2022/07/03 19:15:38;;;;;;;1.55;0.70;;;;;;;;;;8320767;28;20447;-59
2022/07/03 19:19:38;;;;;;;2.97;0.80;;;;;;;;;;8326012;28;20083;-58
2022/07/03 19:23:38;;;;;;;0.80;0.70;;;;;;;;;;8324880;28;20032;-62
2022/07/03 19:27:39;;;;;;;1.98;0.88;;;;;;;;;;8325173;28;20290;-58
2022/07/03 19:31:40;;;;;;;2.03;0.73;;;;;;;;;;8322488;28;20062;-58
2022/07/03 19:35:40;;;;;;;0.70;0.70;;;;;;;;;;8319750;28;20025;-58
2022/07/03 19:39:40;;;;;;;4.18;1.00;;;;;;;;;;8324679;28;20033;-57
2022/07/03 19:43:41;;;;;;;0.85;0.80;;;;;;;;;;8323454;28;20128;-58
2022/07/03 19:47:41;;;;;;;2.20;0.93;;;;;;;;;;8321423;28;20041;-57
2022/07/03 19:51:41;;;;;;;2.22;0.90;;;;;;;;;;8321519;28;20111;-58
2022/07/03 19:55:41;;;;;;;2.58;1.00;;;;;;;;;;8322816;28;20025;-57
2022/07/03 19:59:42;;;;;;;2.03;0.90;;;;;;;;;;8322483;28;20768;-58
2022/07/03 20:03:42;;;;;;;2.00;1.00;;;;;;;;;;8321992;28;20924;-57
2022/07/03 20:07:42;;;;;;;1.85;0.90;;;;;;;;;;8323789;28;20565;-58
2022/07/03 20:11:42;;;;;;;4.68;0.90;;;;;;;;;;8320674;28;20144;-58
2022/07/03 20:15:43;;;;;;;3.65;1.02;;;;;;;;;;8319548;28;20039;-58
2022/07/03 20:19:43;;;;;;;6.55;1.15;;;;;;;;;;8321457;28;20112;-57
2022/07/03 20:28:03;;;;;;;3.65;0.90;;;;;;;;;;8315358;28;20043;-59
2022/07/03 20:32:03;;;;;;;2.40;0.90;;;;;;;;;;8322727;28;20038;-58
2022/07/03 20:36:04;;;;;;;3.00;0.82;;;;;;;;;;8321372;28;20036;-58
2022/07/03 20:40:04;;;;;;;1.27;1.00;;;;;;;;;;8326710;28;20020;-59
2022/07/03 20:44:05;;;;;;;2.97;1.00;;;;;;;;;;8323959;28;20025;-59
2022/07/03 20:48:05;;;;;;;3.55;1.10;;;;;;;;;;8318736;28;20497;-58
2022/07/03 20:52:05;;;;;;;2.80;1.00;;;;;;;;;;8321871;28;20676;-58
2022/07/03 20:56:05;;;;;;;1.60;0.90;;;;;;;;;;8322909;28;20752;-56
2022/07/03 21:00:06;;;;;;;2.37;1.20;;;;;;;;;;8321056;28;20251;-59
2022/07/03 21:04:08;;;;;;;2.53;1.05;;;;;;;;;;8319771;28;20459;-57
2022/07/03 21:08:08;;;;;;;1.60;1.00;;;;;;;;;;8325516;28;20028;-59
2022/07/03 21:12:09;;;;;;;2.58;0.98;;;;;;;;;;8324587;28;20032;-58
2022/07/03 21:16:09;;;;;;;4.87;1.10;;;;;;;;;;8322248;28;20125;-58
2022/07/03 21:20:09;;;;;;;1.38;0.90;;;;;;;;;;8325469;28;20264;-58
2022/07/03 21:24:15;;;;;;;3.67;0.93;;;;;;;;;;8319082;28;20025;-58
2022/07/03 21:28:15;;;;;;;7.90;1.33;;;;;;;;;;8320961;28;20037;-59
2022/07/03 21:32:15;;;;;;;5.50;1.00;;;;;;;;;;8322206;28;20413;-58
2022/07/03 21:36:17;;;;;;;5.03;1.13;;;;;;;;;;8321197;28;20072;-58
2022/07/03 21:40:19;;;;;;;4.10;1.40;;;;;;;;;;8323005;28;20032;-58
2022/07/03 21:44:19;;;;;;;3.43;1.13;;;;;;;;;;8319082;28;20259;-57
2022/07/03 21:48:20;;;;;;;1.33;0.90;;;;;;;;;;8320722;28;20218;-57
2022/07/03 21:52:20;;;;;;;2.50;0.97;;;;;;;;;;8320434;28;20068;-58
2022/07/03 21:56:20;;;;;;;1.42;0.98;;;;;;;;;;8319402;28;20065;-57
2022/07/03 22:00:20;;;;;;;4.20;1.00;;;;;;;;;;8319032;28;20038;-58
2022/07/03 22:04:20;;;;;;;1.25;0.90;;;;;;;;;;8318402;28;20090;-57
2022/07/03 22:08:21;;;;;;;4.10;1.20;;;;;;;;;;8320839;28;20036;-58
2022/07/03 22:12:33;;;;;;;2.10;1.10;;;;;;;;;;8323097;28;20044;-57
2022/07/03 22:16:33;;;;;;;3.05;1.30;;;;;;;;;;8325749;28;20044;-57
2022/07/03 22:20:34;;;;;;;3.70;1.10;;;;;;;;;;8329963;28;20036;-58
2022/07/03 22:24:36;;;;;;;4.70;1.13;;;;;;;;;;8326133;28;20043;-58
2022/07/03 22:28:36;;;;;;;4.00;1.02;;;;;;;;;;8326476;28;20029;-58
2022/07/03 22:32:38;;;;;;;1.50;1.00;;;;;;;;;;8328300;28;20068;-59
2022/07/03 22:36:38;;;;;;;1.73;1.02;;;;;;;;;;8327179;28;20040;-57
2022/07/03 22:40:39;;;;;;;2.15;1.00;;;;;;;;;;8327717;28;20026;-58
2022/07/03 22:44:40;;;;;;;1.00;0.73;;;;;;;;;;8326580;28;20028;-57
2022/07/03 22:48:40;;;;;;;3.85;1.00;;;;;;;;;;8325994;28;20288;-58
2022/07/03 22:52:41;;;;;;;3.08;1.30;;;;;;;;;;8325972;28;20462;-57
2022/07/03 22:56:42;;;;;;;5.10;1.15;;;;;;;;;;8326642;28;20623;-57
2022/07/03 23:00:42;;;;;;;1.63;0.90;;;;;;;;;;8324240;28;20041;-59
2022/07/03 23:04:42;;;;;;;1.52;1.00;;;;;;;;;;8324648;28;20195;-57
2022/07/03 23:08:42;;;;;;;3.97;0.93;;;;;;;;;;8325710;28;20021;-57
2022/07/03 23:12:42;;;;;;;3.15;1.10;;;;;;;;;;8327885;28;20024;-57
2022/07/03 23:16:43;;;;;;;1.75;1.00;;;;;;;;;;8325197;28;20132;-57
2022/07/03 23:20:43;;;;;;;3.20;0.90;;;;;;;;;;8326766;28;20152;-57
2022/07/03 23:24:43;;;;;;;2.58;1.17;;;;;;;;;;8325721;28;20078;-57
2022/07/03 23:28:47;;;;;;;2.75;1.00;;;;;;;;;;8329050;28;20110;-57
2022/07/03 23:32:47;;;;;;;2.65;0.88;;;;;;;;;;8323136;28;20052;-57
2022/07/03 23:36:48;;;;;;;1.48;0.80;;;;;;;;;;8325747;28;20485;-58
2022/07/03 23:40:48;;;;;;;3.85;1.00;;;;;;;;;;8325854;28;20520;-57
2022/07/03 23:44:48;;;;;;;3.08;1.00;;;;;;;;;;8326882;28;20060;-57
2022/07/03 23:53:08;;;;;;;1.85;0.85;;;;;;;;;;8325963;28;20031;-57
2022/07/03 23:57:08;;;;;;;3.28;0.88;;;;;;;;;;8323888;28;20037;-57
